CheckWX is a tool to help pilots better visualize weather data.  It is not intended as a substitute for an official pre-flight weather briefing.

03:15:36 UTC

KFFZ METAR
Falcon Field Airport
Mesa, Arizona, USA
Current

22 mins ago

KFFZ 250254Z 00000KT 10SM CLR 14/05 A2996 RMK AO2 SLP134 T01440050 53014
Observed
Jan-25 @ 02:54 UTC
Visibility
10 SM
Flight Rules
VFR
Cloud Levels
  • Clear skies
Temperature
14°C / 57°F
Dewpoint
C / 41°F
Humidity
55%
Altimeter
29.96" Hg
Pressure
1014.52 hPa
Previous

1 hour ago

KFFZ 250154Z 00000KT 10SM CLR 19/04 A2995 RMK AO2 SLP128 T01890039
Observed
Jan-25 @ 01:54 UTC
Visibility
10 SM
Flight Rules
VFR
Cloud Levels
  • Clear skies
Temperature
19°C / 66°F
Dewpoint
C / 39°F
Humidity
37%
Altimeter
29.95" Hg
Pressure
1014.22 hPa
Previous

2 hours ago

KFFZ 250054Z 27004KT 10SM CLR 20/03 A2992 RMK AO2 SLP118 T02000033
Observed
Jan-25 @ 00:54 UTC
Wind
  • 270° at 4 KTS
Visibility
10 SM
Flight Rules
VFR
Cloud Levels
  • Clear skies
Temperature
20°C / 68°F
Dewpoint
C / 37°F
Humidity
33%
Altimeter
29.92" Hg
Pressure
1013.22 hPa